createdAt,value
2018-04-25T00:00:10.043Z,939.21
2018-04-25T00:01:10.042Z,939.21
2018-04-25T00:02:10.031Z,939.17
2018-04-25T00:03:10.022Z,939.22
2018-04-25T00:04:10.016Z,939.20
2018-04-25T00:05:10.010Z,939.16
2018-04-25T00:06:10.002Z,939.17
2018-04-25T00:07:09.995Z,939.16
2018-04-25T00:08:09.990Z,939.15
2018-04-25T00:09:09.982Z,939.20
2018-04-25T00:10:09.977Z,939.17
2018-04-25T00:11:09.969Z,939.19
2018-04-25T00:12:09.960Z,939.18
2018-04-25T00:13:09.955Z,939.20
2018-04-25T00:14:09.947Z,939.18
2018-04-25T00:15:09.940Z,939.22
2018-04-25T00:16:09.934Z,939.19
2018-04-25T00:17:09.930Z,939.18
2018-04-25T00:18:09.919Z,939.18
2018-04-25T00:19:09.914Z,939.17
2018-04-25T00:20:09.909Z,939.13
2018-04-25T00:21:09.899Z,939.18
2018-04-25T00:22:09.891Z,939.18
2018-04-25T00:23:09.885Z,939.17
2018-04-25T00:24:09.881Z,939.18
2018-04-25T00:25:09.873Z,939.18
2018-04-25T00:26:09.867Z,939.17
2018-04-25T00:27:09.859Z,939.15
2018-04-25T00:28:09.850Z,939.15
2018-04-25T00:29:09.845Z,939.11
2018-04-25T00:30:09.836Z,939.11
2018-04-25T00:31:09.831Z,939.08
2018-04-25T00:32:09.823Z,939.03
2018-04-25T00:33:09.817Z,939.01
2018-04-25T00:34:09.809Z,939.01
2018-04-25T00:35:09.803Z,939.00
2018-04-25T00:36:09.796Z,939.04
2018-04-25T00:37:09.789Z,939.06
2018-04-25T00:38:09.781Z,939.05
2018-04-25T00:39:09.875Z,939.02
2018-04-25T00:40:09.767Z,939.06
2018-04-25T00:41:09.761Z,939.08
2018-04-25T00:42:09.754Z,939.07
2018-04-25T00:43:09.746Z,939.05
2018-04-25T00:44:09.739Z,939.09
2018-04-25T00:45:09.733Z,939.02
2018-04-25T00:46:09.727Z,939.00
2018-04-25T00:47:09.718Z,939.00
2018-04-25T00:48:09.712Z,938.97
2018-04-25T00:49:09.706Z,939.00
2018-04-25T00:50:09.697Z,938.97
2018-04-25T00:51:09.691Z,939.00
2018-04-25T00:52:09.685Z,939.02
2018-04-25T00:53:09.677Z,939.02
2018-04-25T00:54:09.669Z,939.01
2018-04-25T00:55:09.663Z,938.98
2018-04-25T00:56:09.656Z,938.96
2018-04-25T00:57:09.649Z,938.95
2018-04-25T00:58:09.642Z,938.95
2018-04-25T00:59:09.636Z,938.90
2018-04-25T01:00:09.628Z,938.90
2018-04-25T01:01:09.622Z,938.88
2018-04-25T01:02:09.615Z,938.91
2018-04-25T01:03:09.607Z,938.91
2018-04-25T01:04:09.600Z,938.87
2018-04-25T01:05:09.594Z,938.88
2018-04-25T01:06:09.586Z,938.87
2018-04-25T01:07:09.579Z,938.86
2018-04-25T01:08:09.577Z,938.85
2018-04-25T01:09:09.566Z,938.83
2018-04-25T01:10:09.557Z,938.83
2018-04-25T01:11:09.551Z,938.83
2018-04-25T01:12:09.545Z,938.84
2018-04-25T01:13:09.538Z,938.90
2018-04-25T01:14:09.529Z,938.92
2018-04-25T01:15:09.523Z,938.88
2018-04-25T01:16:09.516Z,938.83
2018-04-25T01:17:09.509Z,938.82
2018-04-25T01:18:09.500Z,938.77
2018-04-25T01:19:09.494Z,938.79
2018-04-25T01:20:09.488Z,938.78
2018-04-25T01:21:09.480Z,938.78
2018-04-25T01:22:09.472Z,938.81
2018-04-25T01:23:09.469Z,938.81
2018-04-25T01:24:09.457Z,938.81
2018-04-25T01:25:09.454Z,938.81
2018-04-25T01:26:09.444Z,938.81
2018-04-25T01:27:09.436Z,938.84
2018-04-25T01:28:09.430Z,938.82
2018-04-25T01:29:09.423Z,938.80
2018-04-25T01:30:09.415Z,938.78
2018-04-25T01:31:09.409Z,938.81
2018-04-25T01:32:09.402Z,938.79
2018-04-25T01:33:09.395Z,938.80
2018-04-25T01:34:09.390Z,938.81
2018-04-25T01:35:09.382Z,938.78
2018-04-25T01:36:09.375Z,938.79
2018-04-25T01:37:09.367Z,938.80
2018-04-25T01:38:09.359Z,938.80
2018-04-25T01:39:09.352Z,938.80
2018-04-25T01:40:09.401Z,938.83
2018-04-25T01:41:09.336Z,938.82
2018-04-25T01:42:09.332Z,938.85
2018-04-25T01:43:09.324Z,938.84
2018-04-25T01:44:09.317Z,938.84
2018-04-25T01:45:09.310Z,938.78
2018-04-25T01:46:09.302Z,938.83
2018-04-25T01:47:09.295Z,938.80
2018-04-25T01:48:09.287Z,938.81
2018-04-25T01:49:09.281Z,938.82
2018-04-25T01:50:09.280Z,938.83
2018-04-25T01:51:09.266Z,938.81
2018-04-25T01:52:09.259Z,938.83
2018-04-25T01:53:09.252Z,938.80
2018-04-25T01:54:09.243Z,938.82
2018-04-25T01:55:09.240Z,938.80
2018-04-25T01:56:09.230Z,938.79
2018-04-25T01:57:09.223Z,938.75
2018-04-25T01:58:09.215Z,938.72
2018-04-25T01:59:09.208Z,938.70
2018-04-25T02:00:09.205Z,938.75
2018-04-25T02:01:09.194Z,938.74
2018-04-25T02:02:09.184Z,938.77
2018-04-25T02:03:09.179Z,938.75
2018-04-25T02:04:09.171Z,938.76
2018-04-25T02:05:09.165Z,938.76
2018-04-25T02:06:09.160Z,938.79
2018-04-25T02:07:09.150Z,938.76
2018-04-25T02:08:09.143Z,938.77
2018-04-25T02:09:09.138Z,938.75
2018-04-25T02:10:09.127Z,938.73
2018-04-25T02:11:09.121Z,938.76
2018-04-25T02:12:09.114Z,938.77
2018-04-25T02:13:09.107Z,938.76
2018-04-25T02:14:09.098Z,938.77
2018-04-25T02:15:09.091Z,938.74
2018-04-25T02:16:09.083Z,938.74
2018-04-25T02:17:09.077Z,938.72
2018-04-25T02:18:09.070Z,938.74
2018-04-25T02:19:09.065Z,938.73
2018-04-25T02:20:09.054Z,938.70
2018-04-25T02:21:09.047Z,938.76
2018-04-25T02:22:09.042Z,938.72
2018-04-25T02:23:09.030Z,938.69
2018-04-25T02:24:09.025Z,938.71
2018-04-25T02:25:09.017Z,938.66
2018-04-25T02:26:09.012Z,938.71
2018-04-25T02:27:09.002Z,938.70
2018-04-25T02:28:08.995Z,938.72
2018-04-25T02:29:08.988Z,938.69
2018-04-25T02:30:08.981Z,938.71
2018-04-25T02:31:08.980Z,938.70
2018-04-25T02:32:08.965Z,938.70
2018-04-25T02:33:08.958Z,938.66
2018-04-25T02:34:08.955Z,938.66
2018-04-25T02:35:08.943Z,938.66
2018-04-25T02:36:08.935Z,938.67
2018-04-25T02:37:08.933Z,938.64
2018-04-25T02:38:08.922Z,938.63
2018-04-25T02:39:09.014Z,938.62
2018-04-25T02:40:08.906Z,938.58
2018-04-25T02:41:08.899Z,938.59
2018-04-25T02:42:08.894Z,938.58
2018-04-25T02:43:08.884Z,938.57
2018-04-25T02:44:08.881Z,938.58
2018-04-25T02:45:08.870Z,938.56
2018-04-25T02:46:08.860Z,938.57
2018-04-25T02:47:08.855Z,938.59
2018-04-25T02:48:08.848Z,938.56
2018-04-25T02:49:08.841Z,938.56
2018-04-25T02:50:08.833Z,938.54
2018-04-25T02:51:08.826Z,938.53
2018-04-25T02:52:08.818Z,938.56
2018-04-25T02:53:08.811Z,938.52
2018-04-25T02:54:08.803Z,938.54
2018-04-25T02:55:08.795Z,938.52
2018-04-25T02:56:08.787Z,938.53
2018-04-25T02:57:08.782Z,938.54
2018-04-25T02:58:08.771Z,938.56
2018-04-25T02:59:08.767Z,938.53
2018-04-25T03:00:08.766Z,938.52
2018-04-25T03:01:08.753Z,938.53
2018-04-25T03:02:08.744Z,938.49
2018-04-25T03:03:08.736Z,938.51
2018-04-25T03:04:08.729Z,938.55
2018-04-25T03:05:08.721Z,938.51
2018-04-25T03:06:08.713Z,938.53
2018-04-25T03:07:08.707Z,938.51
2018-04-25T03:08:08.699Z,938.55
2018-04-25T03:09:08.801Z,938.51
2018-04-25T03:10:08.683Z,938.49
2018-04-25T03:11:08.676Z,938.49
2018-04-25T03:12:08.765Z,938.51
2018-04-25T03:13:08.671Z,938.50
2018-04-25T03:14:08.652Z,938.48
2018-04-25T03:15:08.646Z,938.45
2018-04-25T03:16:08.645Z,938.46
2018-04-25T03:17:08.630Z,938.39
2018-04-25T03:18:08.623Z,938.42
2018-04-25T03:19:08.712Z,938.36
2018-04-25T03:20:08.607Z,938.36
2018-04-25T03:21:08.600Z,938.30
2018-04-25T03:22:08.592Z,938.29
2018-04-25T03:23:08.583Z,938.30
2018-04-25T03:24:08.576Z,938.28
2018-04-25T03:25:08.569Z,938.30
2018-04-25T03:26:08.561Z,938.27
2018-04-25T03:27:08.552Z,938.30
2018-04-25T03:28:08.546Z,938.30
2018-04-25T03:29:08.538Z,938.25
2018-04-25T03:30:08.531Z,938.30
2018-04-25T03:31:08.523Z,938.27
2018-04-25T03:32:08.516Z,938.28
2018-04-25T03:33:08.508Z,938.27
2018-04-25T03:34:08.500Z,938.26
2018-04-25T03:35:08.494Z,938.26
2018-04-25T03:36:08.485Z,938.24
2018-04-25T03:37:08.480Z,938.20
2018-04-25T03:38:08.479Z,938.20
2018-04-25T03:39:08.562Z,938.23
2018-04-25T03:40:08.454Z,938.22
2018-04-25T03:41:08.507Z,938.22
2018-04-25T03:42:08.437Z,938.20
2018-04-25T03:43:08.431Z,938.22
2018-04-25T03:44:08.425Z,938.18
2018-04-25T03:45:08.515Z,938.14
2018-04-25T03:46:08.408Z,938.16
2018-04-25T03:47:08.400Z,938.13
2018-04-25T03:48:08.393Z,938.11
2018-04-25T03:49:08.386Z,938.16
2018-04-25T03:50:08.379Z,938.10
2018-04-25T03:51:08.375Z,938.11
2018-04-25T03:52:08.362Z,938.09
2018-04-25T03:53:08.353Z,938.07
2018-04-25T03:54:08.346Z,938.04
2018-04-25T03:55:08.337Z,938.06
2018-04-25T03:56:08.330Z,938.02
2018-04-25T03:57:08.323Z,938.01
2018-04-25T03:58:08.315Z,938.01
2018-04-25T03:59:08.377Z,937.98
2018-04-25T04:00:08.298Z,937.99
2018-04-25T04:01:08.291Z,937.95
2018-04-25T04:02:08.360Z,937.93
2018-04-25T04:03:08.276Z,937.92
2018-04-25T04:04:08.271Z,937.91
2018-04-25T04:05:08.259Z,937.92
2018-04-25T04:06:08.252Z,937.91
2018-04-25T04:07:08.245Z,937.91
2018-04-25T04:08:08.237Z,937.90
2018-04-25T04:09:08.229Z,937.88
2018-04-25T04:10:08.220Z,937.87
2018-04-25T04:11:08.215Z,937.83
2018-04-25T04:12:08.206Z,937.84
2018-04-25T04:13:08.198Z,937.85
2018-04-25T04:14:08.190Z,937.80
2018-04-25T04:15:08.185Z,937.77
2018-04-25T04:16:08.174Z,937.78
2018-04-25T04:17:08.167Z,937.74
2018-04-25T04:18:08.157Z,937.74
2018-04-25T04:19:08.150Z,937.69
2018-04-25T04:20:08.143Z,937.68
2018-04-25T04:21:08.137Z,937.70
2018-04-25T04:22:08.126Z,937.68
2018-04-25T04:23:08.119Z,937.71
2018-04-25T04:24:08.111Z,937.72
2018-04-25T04:25:08.103Z,937.67
2018-04-25T04:26:08.095Z,937.67
2018-04-25T04:27:08.087Z,937.68
2018-04-25T04:28:08.081Z,937.62
2018-04-25T04:29:08.073Z,937.63
2018-04-25T04:30:08.063Z,937.64
2018-04-25T04:31:08.057Z,937.61
2018-04-25T04:32:08.050Z,937.64
2018-04-25T04:33:08.045Z,937.63
2018-04-25T04:34:08.032Z,937.62
2018-04-25T04:35:08.024Z,937.60
2018-04-25T04:36:08.017Z,937.62
2018-04-25T04:37:08.009Z,937.62
2018-04-25T04:38:08.001Z,937.60
2018-04-25T04:39:07.993Z,937.59
2018-04-25T04:40:07.986Z,937.56
2018-04-25T04:41:07.981Z,937.57
2018-04-25T04:42:07.969Z,937.54
2018-04-25T04:43:08.022Z,937.53
2018-04-25T04:44:07.953Z,937.53
2018-04-25T04:45:07.951Z,937.50
2018-04-25T04:46:07.937Z,937.51
2018-04-25T04:47:07.929Z,937.50
2018-04-25T04:48:07.920Z,937.49
2018-04-25T04:49:07.914Z,937.47
2018-04-25T04:50:07.905Z,937.46
2018-04-25T04:51:07.896Z,937.43
2018-04-25T04:52:07.888Z,937.39
2018-04-25T04:53:07.881Z,937.42
2018-04-25T04:54:07.872Z,937.41
2018-04-25T04:55:07.865Z,937.39
2018-04-25T04:56:07.862Z,937.44
2018-04-25T04:57:07.848Z,937.44
2018-04-25T04:58:07.841Z,937.44
2018-04-25T04:59:07.833Z,937.43
2018-04-25T05:00:07.826Z,937.43
2018-04-25T05:01:07.818Z,937.42
2018-04-25T05:02:07.809Z,937.38
2018-04-25T05:03:07.801Z,937.41
2018-04-25T05:04:07.794Z,937.39
2018-04-25T05:05:07.785Z,937.39
2018-04-25T05:06:07.778Z,937.37
2018-04-25T05:07:07.769Z,937.37
2018-04-25T05:08:07.763Z,937.34
2018-04-25T05:09:07.754Z,937.35
2018-04-25T05:10:07.746Z,937.32
2018-04-25T05:11:07.739Z,937.31
2018-04-25T05:12:07.730Z,937.31
2018-04-25T05:13:07.733Z,937.29
2018-04-25T05:14:07.717Z,937.27
2018-04-25T05:15:07.807Z,937.26
2018-04-25T05:16:07.698Z,937.20
2018-04-25T05:17:07.691Z,937.27
2018-04-25T05:18:07.686Z,937.23
2018-04-25T05:19:07.675Z,937.22
2018-04-25T05:20:07.666Z,937.19
2018-04-25T05:21:07.659Z,937.16
2018-04-25T05:22:07.647Z,937.19
2018-04-25T05:23:07.641Z,937.13
2018-04-25T05:24:07.634Z,937.11
2018-04-25T05:25:07.625Z,937.11
2018-04-25T05:26:07.618Z,937.08
2018-04-25T05:27:07.609Z,937.07
2018-04-25T05:28:07.602Z,937.06
2018-04-25T05:29:07.594Z,937.07
2018-04-25T05:30:07.585Z,937.06
2018-04-25T05:31:07.578Z,937.01
2018-04-25T05:32:07.609Z,937.04
2018-04-25T05:33:07.561Z,937.04
2018-04-25T05:34:07.552Z,937.02
2018-04-25T05:35:07.544Z,937.01
2018-04-25T05:36:07.537Z,936.98
2018-04-25T05:37:07.529Z,936.99
2018-04-25T05:38:07.523Z,937.00
2018-04-25T05:39:07.611Z,937.00
2018-04-25T05:40:07.505Z,936.98
2018-04-25T05:41:07.496Z,936.98
2018-04-25T05:42:07.488Z,937.00
2018-04-25T05:43:07.481Z,937.00
2018-04-25T05:44:07.472Z,937.00
2018-04-25T05:45:07.464Z,936.97
2018-04-25T05:46:07.455Z,936.98
2018-04-25T05:47:07.447Z,936.98
2018-04-25T05:48:07.440Z,936.98
2018-04-25T05:49:07.432Z,936.99
2018-04-25T05:50:07.435Z,937.03
2018-04-25T05:51:07.417Z,937.02
2018-04-25T05:52:07.408Z,937.02
2018-04-25T05:53:07.400Z,937.08
2018-04-25T05:54:07.392Z,937.07
2018-04-25T05:55:07.383Z,937.08
2018-04-25T05:56:07.375Z,937.06
2018-04-25T05:57:07.369Z,937.05
2018-04-25T05:58:07.359Z,937.02
2018-04-25T05:59:07.350Z,937.05
2018-04-25T06:00:07.342Z,937.06
2018-04-25T06:01:07.335Z,937.06
2018-04-25T06:02:07.330Z,937.07
2018-04-25T06:03:07.422Z,937.05
2018-04-25T06:04:07.311Z,937.04
2018-04-25T06:05:07.303Z,937.09
2018-04-25T06:06:07.294Z,937.08
2018-04-25T06:07:07.341Z,937.07
2018-04-25T06:08:07.280Z,937.03
2018-04-25T06:09:07.270Z,937.08
2018-04-25T06:10:07.264Z,937.07
2018-04-25T06:11:07.256Z,937.08
2018-04-25T06:12:07.256Z,937.07
2018-04-25T06:13:07.240Z,937.12
2018-04-25T06:14:07.232Z,937.10
2018-04-25T06:15:07.226Z,937.09
2018-04-25T06:16:07.217Z,937.10
2018-04-25T06:17:07.209Z,937.09
2018-04-25T06:18:07.199Z,937.09
2018-04-25T06:19:07.191Z,937.07
2018-04-25T06:20:07.185Z,937.04
2018-04-25T06:21:07.203Z,937.10
2018-04-25T06:22:07.168Z,937.10
2018-04-25T06:23:07.160Z,937.10
2018-04-25T06:24:07.152Z,937.09
2018-04-25T06:25:07.146Z,937.11
2018-04-25T06:26:07.139Z,937.08
2018-04-25T06:27:07.126Z,937.08
2018-04-25T06:28:07.190Z,937.06
2018-04-25T06:29:07.110Z,937.09
2018-04-25T06:30:07.103Z,937.09
2018-04-25T06:31:07.095Z,937.12
2018-04-25T06:32:07.088Z,937.11
2018-04-25T06:33:07.159Z,937.11
2018-04-25T06:34:07.070Z,937.11
2018-04-25T06:35:07.065Z,937.11
2018-04-25T06:36:07.054Z,937.07
2018-04-25T06:37:07.046Z,937.10
2018-04-25T06:38:07.038Z,937.07
2018-04-25T06:39:07.029Z,937.06
2018-04-25T06:40:07.022Z,937.07
2018-04-25T06:41:07.012Z,937.07
2018-04-25T06:42:07.006Z,937.09
2018-04-25T06:43:06.997Z,937.07
2018-04-25T06:44:06.988Z,937.08
2018-04-25T06:45:07.140Z,937.09
2018-04-25T06:46:06.976Z,937.08
2018-04-25T06:47:06.964Z,937.11
2018-04-25T06:48:06.955Z,937.13
2018-04-25T06:49:06.947Z,937.12
2018-04-25T06:50:06.938Z,937.15
2018-04-25T06:51:06.930Z,937.13
2018-04-25T06:52:06.920Z,937.13
2018-04-25T06:53:06.912Z,937.11
2018-04-25T06:54:06.903Z,937.07
2018-04-25T06:55:06.897Z,937.08
2018-04-25T06:56:06.888Z,937.09
2018-04-25T06:57:06.981Z,937.08
2018-04-25T06:58:06.871Z,937.07
2018-04-25T06:59:06.862Z,937.05
2018-04-25T07:00:06.859Z,937.08
2018-04-25T07:01:06.848Z,937.10
2018-04-25T07:02:06.838Z,937.08
2018-04-25T07:03:06.930Z,937.08
2018-04-25T07:04:06.822Z,937.05
2018-04-25T07:05:06.815Z,937.06
2018-04-25T07:06:06.806Z,937.12
2018-04-25T07:07:06.797Z,937.06
2018-04-25T07:08:06.859Z,937.07
2018-04-25T07:09:06.781Z,937.07
2018-04-25T07:10:06.773Z,937.08
2018-04-25T07:11:06.767Z,937.06
2018-04-25T07:12:06.756Z,937.07
2018-04-25T07:13:06.748Z,937.06
2018-04-25T07:14:06.779Z,937.06
2018-04-25T07:15:06.737Z,937.07
2018-04-25T07:16:06.723Z,937.10
2018-04-25T07:17:06.715Z,937.09
2018-04-25T07:18:06.707Z,937.11
2018-04-25T07:19:06.700Z,937.12
2018-04-25T07:20:06.690Z,937.10
2018-04-25T07:21:06.782Z,937.10
2018-04-25T07:22:06.673Z,937.10
2018-04-25T07:23:06.664Z,937.14
2018-04-25T07:24:06.657Z,937.12
2018-04-25T07:25:06.656Z,937.18
2018-04-25T07:26:06.640Z,937.17
2018-04-25T07:27:06.631Z,937.19
2018-04-25T07:28:06.626Z,937.17
2018-04-25T07:29:06.615Z,937.18
2018-04-25T07:30:06.605Z,937.25
2018-04-25T07:31:06.598Z,937.23
2018-04-25T07:32:06.591Z,937.22
2018-04-25T07:33:06.581Z,937.28
2018-04-25T07:34:06.571Z,937.26
2018-04-25T07:35:06.564Z,937.24
2018-04-25T07:36:06.565Z,937.29
2018-04-25T07:37:06.547Z,937.26
2018-04-25T07:38:06.540Z,937.32
2018-04-25T07:39:06.530Z,937.32
2018-04-25T07:40:06.526Z,937.34
2018-04-25T07:41:06.514Z,937.31
2018-04-25T07:42:06.505Z,937.33
2018-04-25T07:43:06.496Z,937.30
2018-04-25T07:44:06.488Z,937.29
2018-04-25T07:45:06.480Z,937.23
2018-04-25T07:46:06.471Z,937.25
2018-04-25T07:47:06.464Z,937.27
2018-04-25T07:48:06.454Z,937.32
2018-04-25T07:49:06.446Z,937.31
2018-04-25T07:50:06.437Z,937.31
2018-04-25T07:51:06.531Z,937.32
2018-04-25T07:52:06.422Z,937.32
2018-04-25T07:53:06.410Z,937.32
2018-04-25T07:54:06.402Z,937.33
2018-04-25T07:55:06.395Z,937.34
2018-04-25T07:56:06.386Z,937.31
2018-04-25T07:57:06.379Z,937.36
2018-04-25T07:58:06.368Z,937.38
2018-04-25T07:59:06.360Z,937.41
2018-04-25T08:00:06.352Z,937.44
2018-04-25T08:01:06.343Z,937.42
2018-04-25T08:02:06.334Z,937.42
2018-04-25T08:03:06.328Z,937.42
2018-04-25T08:04:06.318Z,937.44
2018-04-25T08:05:06.308Z,937.46
2018-04-25T08:06:06.341Z,937.45
2018-04-25T08:07:06.291Z,937.47
2018-04-25T08:08:06.283Z,937.46
2018-04-25T08:09:06.274Z,937.50
2018-04-25T08:10:06.265Z,937.49
2018-04-25T08:11:06.257Z,937.49
2018-04-25T08:12:06.248Z,937.47
2018-04-25T08:13:06.241Z,937.49
2018-04-25T08:14:06.233Z,937.46
2018-04-25T08:15:06.224Z,937.47
2018-04-25T08:16:06.219Z,937.52
2018-04-25T08:17:06.205Z,937.52
2018-04-25T08:18:06.196Z,937.51
2018-04-25T08:19:06.188Z,937.48
2018-04-25T08:20:06.179Z,937.52
2018-04-25T08:21:06.171Z,937.52
2018-04-25T08:22:06.161Z,937.55
2018-04-25T08:23:06.162Z,937.53
2018-04-25T08:24:06.144Z,937.56
2018-04-25T08:25:06.137Z,937.55
2018-04-25T08:26:06.126Z,937.60
2018-04-25T08:27:06.121Z,937.57
2018-04-25T08:28:06.110Z,937.61
2018-04-25T08:29:06.103Z,937.64
2018-04-25T08:30:06.092Z,937.66
2018-04-25T08:31:06.084Z,937.66
2018-04-25T08:32:06.077Z,937.70
2018-04-25T08:33:06.070Z,937.68
2018-04-25T08:34:06.059Z,937.72
2018-04-25T08:35:06.051Z,937.71
2018-04-25T08:36:06.043Z,937.73
2018-04-25T08:37:06.033Z,937.79
2018-04-25T08:38:06.024Z,937.79
2018-04-25T08:39:06.016Z,937.78
2018-04-25T08:40:06.008Z,937.82
2018-04-25T08:41:06.002Z,937.84
2018-04-25T08:42:05.989Z,937.83
2018-04-25T08:43:05.981Z,937.82
2018-04-25T08:44:05.976Z,937.88
2018-04-25T08:45:06.035Z,937.87
2018-04-25T08:46:05.959Z,937.90
2018-04-25T08:47:05.948Z,937.94
2018-04-25T08:48:05.979Z,937.96
2018-04-25T08:49:05.931Z,937.98
2018-04-25T08:50:05.922Z,938.00
2018-04-25T08:51:05.914Z,938.00
2018-04-25T08:52:05.907Z,937.99
2018-04-25T08:53:05.898Z,937.96
2018-04-25T08:54:05.889Z,937.98
2018-04-25T08:55:05.881Z,937.98
2018-04-25T08:56:05.873Z,938.03
2018-04-25T08:57:05.965Z,938.05
2018-04-25T08:58:05.854Z,938.05
2018-04-25T08:59:05.848Z,938.08
2018-04-25T09:00:05.839Z,938.09
2018-04-25T09:01:05.831Z,938.11
2018-04-25T09:02:05.822Z,938.14
2018-04-25T09:03:05.813Z,938.13
2018-04-25T09:04:05.805Z,938.15
2018-04-25T09:05:05.798Z,938.14
2018-04-25T09:06:05.787Z,938.13
2018-04-25T09:07:05.780Z,938.12
2018-04-25T09:08:05.772Z,938.14
2018-04-25T09:09:05.764Z,938.16
2018-04-25T09:10:05.755Z,938.15
2018-04-25T09:11:05.748Z,938.17
2018-04-25T09:12:05.739Z,938.20
2018-04-25T09:13:05.730Z,938.23
2018-04-25T09:14:05.801Z,938.21
2018-04-25T09:15:05.712Z,938.23
2018-04-25T09:16:05.705Z,938.23
2018-04-25T09:17:05.696Z,938.23
2018-04-25T09:18:05.689Z,938.25
2018-04-25T09:19:05.679Z,938.22
2018-04-25T09:20:05.671Z,938.24
2018-04-25T09:21:05.667Z,938.27
2018-04-25T09:22:05.652Z,938.28
2018-04-25T09:23:05.645Z,938.28
2018-04-25T09:24:05.642Z,938.28
2018-04-25T09:25:05.629Z,938.31
2018-04-25T09:26:05.619Z,938.33
2018-04-25T09:27:05.612Z,938.34
2018-04-25T09:28:05.602Z,938.39
2018-04-25T09:29:05.594Z,938.34
2018-04-25T09:30:05.589Z,938.38
2018-04-25T09:31:05.575Z,938.41
2018-04-25T09:32:05.569Z,938.41
2018-04-25T09:33:05.560Z,938.42
2018-04-25T09:34:05.554Z,938.45
2018-04-25T09:35:05.543Z,938.43
2018-04-25T09:36:05.535Z,938.45
2018-04-25T09:37:05.525Z,938.50
2018-04-25T09:38:05.518Z,938.50
2018-04-25T09:39:05.508Z,938.48
2018-04-25T09:40:05.501Z,938.52
2018-04-25T09:41:05.494Z,938.54
2018-04-25T09:42:05.483Z,938.53
2018-04-25T09:43:05.475Z,938.54
2018-04-25T09:44:05.469Z,938.55
2018-04-25T09:45:05.459Z,938.52
2018-04-25T09:46:05.450Z,938.51
2018-04-25T09:47:05.447Z,938.55
2018-04-25T09:48:05.434Z,938.54
2018-04-25T09:49:05.428Z,938.58
2018-04-25T09:50:05.417Z,938.57
2018-04-25T09:51:05.410Z,938.59
2018-04-25T09:52:05.401Z,938.60
2018-04-25T09:53:05.394Z,938.59
2018-04-25T09:54:05.384Z,938.61
2018-04-25T09:55:05.375Z,938.64
2018-04-25T09:56:05.397Z,938.66
2018-04-25T09:57:05.360Z,938.65
2018-04-25T09:58:05.417Z,938.68
2018-04-25T09:59:05.346Z,938.71
2018-04-25T10:00:05.335Z,938.71
2018-04-25T10:01:05.328Z,938.75
2018-04-25T10:02:05.317Z,938.72
2018-04-25T10:03:05.309Z,938.71
2018-04-25T10:04:05.351Z,938.73
2018-04-25T10:05:05.294Z,938.73
2018-04-25T10:06:05.285Z,938.75
2018-04-25T10:07:05.283Z,938.73
2018-04-25T10:08:05.274Z,938.77
2018-04-25T10:09:05.261Z,938.76
2018-04-25T10:10:05.251Z,938.75
2018-04-25T10:11:05.245Z,938.78
2018-04-25T10:12:05.237Z,938.81
2018-04-25T10:13:05.229Z,938.83
2018-04-25T10:14:05.220Z,938.85
2018-04-25T10:15:05.211Z,938.85
2018-04-25T10:16:05.205Z,938.84
2018-04-25T10:17:05.201Z,938.83
2018-04-25T10:18:05.191Z,938.82
2018-04-25T10:19:05.186Z,938.82
2018-04-25T10:20:05.172Z,938.81
2018-04-25T10:21:05.164Z,938.83
2018-04-25T10:22:05.155Z,938.83
2018-04-25T10:23:05.148Z,938.82
2018-04-25T10:24:05.163Z,938.85
2018-04-25T10:25:05.134Z,938.84
2018-04-25T10:26:05.124Z,938.85
2018-04-25T10:27:05.116Z,938.85
2018-04-25T10:28:05.108Z,938.86
2018-04-25T10:29:05.100Z,938.83
2018-04-25T10:30:05.095Z,938.85
2018-04-25T10:31:05.084Z,938.88
2018-04-25T10:32:05.160Z,938.86
2018-04-25T10:33:05.069Z,938.87
2018-04-25T10:34:05.058Z,938.88
2018-04-25T10:35:05.053Z,938.91
2018-04-25T10:36:05.045Z,938.91
2018-04-25T10:37:05.037Z,938.92
2018-04-25T10:38:05.029Z,938.95
2018-04-25T10:39:05.025Z,938.99
2018-04-25T10:40:05.014Z,938.98
2018-04-25T10:41:05.005Z,939.03
2018-04-25T10:42:04.997Z,939.01
2018-04-25T10:43:04.992Z,939.05
2018-04-25T10:44:04.984Z,939.07
2018-04-25T10:45:04.973Z,939.06
2018-04-25T10:46:04.967Z,939.06
2018-04-25T10:47:04.957Z,939.04
2018-04-25T10:48:04.949Z,939.08
2018-04-25T10:49:04.942Z,939.09
2018-04-25T10:50:04.934Z,939.14
2018-04-25T10:51:04.925Z,939.16
2018-04-25T10:52:04.918Z,939.18
2018-04-25T10:53:04.910Z,939.18
2018-04-25T10:54:04.902Z,939.23
2018-04-25T10:55:04.897Z,939.22
2018-04-25T10:56:04.886Z,939.24
2018-04-25T10:57:04.877Z,939.23
2018-04-25T10:58:04.869Z,939.23
2018-04-25T10:59:04.863Z,939.22
2018-04-25T11:00:04.854Z,939.23
2018-04-25T11:01:04.847Z,939.28
2018-04-25T11:02:04.837Z,939.33
2018-04-25T11:03:04.830Z,939.33
2018-04-25T11:04:04.824Z,939.32
2018-04-25T11:05:04.816Z,939.35
2018-04-25T11:06:04.823Z,939.31
2018-04-25T11:07:04.801Z,939.35
2018-04-25T11:08:04.792Z,939.39
2018-04-25T11:09:04.935Z,939.38
2018-04-25T11:10:04.776Z,939.38
2018-04-25T11:11:04.769Z,939.36
2018-04-25T11:12:04.761Z,939.39
2018-04-25T11:13:04.753Z,939.38
2018-04-25T11:14:04.744Z,939.40
2018-04-25T11:15:04.738Z,939.43
2018-04-25T11:16:04.730Z,939.45
2018-04-25T11:17:04.723Z,939.44
2018-04-25T11:18:04.715Z,939.48
2018-04-25T11:19:04.707Z,939.50
2018-04-25T11:20:04.700Z,939.49
2018-04-25T11:21:04.693Z,939.52
2018-04-25T11:22:04.684Z,939.51
2018-04-25T11:23:04.677Z,939.53
2018-04-25T11:24:04.671Z,939.56
2018-04-25T11:25:04.664Z,939.57
2018-04-25T11:26:04.654Z,939.58
2018-04-25T11:27:04.646Z,939.55
2018-04-25T11:28:04.640Z,939.61
2018-04-25T11:29:04.632Z,939.62
2018-04-25T11:30:04.625Z,939.66
2018-04-25T11:31:04.617Z,939.68
2018-04-25T11:32:04.609Z,939.69
2018-04-25T11:33:04.648Z,939.70
2018-04-25T11:34:04.594Z,939.72
2018-04-25T11:35:04.587Z,939.73
2018-04-25T11:36:04.580Z,939.73
2018-04-25T11:37:04.571Z,939.76
2018-04-25T11:38:04.564Z,939.75
2018-04-25T11:39:04.557Z,939.75
2018-04-25T11:40:04.551Z,939.73
2018-04-25T11:41:04.543Z,939.77
2018-04-25T11:42:04.537Z,939.72
2018-04-25T11:43:04.531Z,939.77
2018-04-25T11:44:04.522Z,939.77
2018-04-25T11:45:04.515Z,939.81
2018-04-25T11:46:04.507Z,939.82
2018-04-25T11:47:04.566Z,939.83
2018-04-25T11:48:04.494Z,939.83
2018-04-25T11:49:04.488Z,939.77
2018-04-25T11:50:04.480Z,939.84
2018-04-25T11:51:04.475Z,939.79
2018-04-25T11:52:04.469Z,939.81
2018-04-25T11:53:04.464Z,939.80
2018-04-25T11:54:04.462Z,939.80
2018-04-25T11:55:04.447Z,939.83
2018-04-25T11:56:04.593Z,939.85
2018-04-25T11:57:04.434Z,939.83
2018-04-25T11:58:04.429Z,939.83
2018-04-25T11:59:04.422Z,939.87
2018-04-25T12:00:04.415Z,939.85
2018-04-25T12:01:04.411Z,939.87
2018-04-25T12:02:04.408Z,939.89
2018-04-25T12:03:04.397Z,939.92
2018-04-25T12:04:04.391Z,939.92
2018-04-25T12:05:04.402Z,939.96
2018-04-25T12:06:04.379Z,939.99
2018-04-25T12:07:04.373Z,939.97
2018-04-25T12:08:04.368Z,940.00
2018-04-25T12:09:04.362Z,939.96
2018-04-25T12:10:04.357Z,940.00
2018-04-25T12:11:04.352Z,940.00
2018-04-25T12:12:04.346Z,940.00
2018-04-25T12:13:04.430Z,940.01
2018-04-25T12:14:04.332Z,940.03
2018-04-25T12:15:04.328Z,939.97
2018-04-25T12:16:04.322Z,940.02
2018-04-25T12:17:04.317Z,940.03
2018-04-25T12:18:04.311Z,940.05
2018-04-25T12:19:04.307Z,940.05
2018-04-25T12:20:04.302Z,940.05
2018-04-25T12:21:04.298Z,940.06
2018-04-25T12:22:04.290Z,940.05
2018-04-25T12:23:04.285Z,940.06
2018-04-25T12:24:04.283Z,940.03
2018-04-25T12:25:04.282Z,940.01
2018-04-25T12:26:04.270Z,940.08
2018-04-25T12:27:04.265Z,940.06
2018-04-25T12:28:04.259Z,940.04